Terminal Aerodrome Forecast
Issued by NWS

Home | Current Version | Previous Version | Text Only | Print | Product List | Glossary On
Versions: 1 2 3 4 5 6 7 8 9 10 11 12 13 14 15 16 17 18 19 20 21 22 23 24 25 26 27 28
000
FTUS44 KFWD 161100
TAFGKY
TAF
KGKY 161131Z 1612/1712 17012KT P6SM BKN300
     FM161500 17020G30KT P6SM BKN300
     FM170000 14012KT P6SM SCT040 BKN250
     FM170900 14010KT P6SM OVC020=

USA.gov is the U.S. government's official web portal to all federal, state and local government web resources and services.